createdAt,value
2022-08-22T00:02:48.856Z,8.40
2022-08-22T00:03:10.645Z,7.73
2022-08-22T07:33:53.507Z,3.03
2022-08-22T07:38:13.385Z,1.97
2022-08-22T07:42:30.151Z,3.20
2022-08-22T07:46:44.645Z,4.10
2022-08-22T07:51:02.329Z,4.27
2022-08-22T07:55:18.991Z,3.73
2022-08-22T07:59:33.165Z,3.77
2022-08-22T08:03:42.979Z,4.13
2022-08-22T08:07:56.127Z,4.63
2022-08-22T08:12:08.585Z,3.27
2022-08-22T08:16:22.025Z,9.37
2022-08-22T08:20:31.784Z,4.13
2022-08-22T08:24:45.721Z,4.70
2022-08-22T08:28:59.244Z,2.70
2022-08-22T08:33:25.091Z,2.77
2022-08-22T08:37:44.049Z,3.03
2022-08-22T08:42:57.724Z,3.03
2022-08-22T08:47:24.147Z,4.33
2022-08-22T08:51:56.367Z,5.00
2022-08-22T08:56:17.764Z,3.40
2022-08-22T09:00:46.282Z,5.10
2022-08-22T09:05:38.147Z,3.80
2022-08-22T09:10:06.005Z,4.20
2022-08-22T09:14:36.126Z,4.87
2022-08-22T09:19:13.425Z,3.70
2022-08-22T09:23:53.984Z,1.93
2022-08-22T09:28:11.584Z,2.07
2022-08-22T09:32:34.065Z,2.03
2022-08-22T09:37:01.224Z,1.90
2022-08-22T09:41:25.585Z,3.70
2022-08-22T09:46:02.088Z,2.23
2022-08-22T09:50:17.571Z,2.57
2022-08-22T09:54:33.158Z,2.10
2022-08-22T09:58:51.861Z,2.13
2022-08-22T10:03:08.005Z,2.37
2022-08-22T10:07:35.025Z,2.47
2022-08-22T10:11:50.346Z,2.67
2022-08-22T10:16:16.704Z,3.07
2022-08-22T10:20:33.367Z,2.43
2022-08-22T10:24:52.287Z,2.67
2022-08-22T10:29:12.425Z,1.90
2022-08-22T10:33:29.685Z,2.43
2022-08-22T10:37:46.046Z,1.80
2022-08-22T10:42:13.866Z,2.80
2022-08-22T10:46:30.883Z,1.70
2022-08-22T10:50:47.446Z,1.90
2022-08-22T10:55:09.626Z,1.83
2022-08-22T10:59:34.366Z,2.20
2022-08-22T11:03:48.499Z,2.47
2022-08-22T11:08:18.747Z,2.30
2022-08-22T11:12:41.778Z,2.50
2022-08-22T11:17:12.078Z,2.67
2022-08-22T11:21:50.927Z,3.57
2022-08-22T11:26:33.650Z,3.43
2022-08-22T11:31:07.303Z,4.40
2022-08-22T11:39:45.617Z,4.13
2022-08-22T11:44:03.753Z,4.10
2022-08-22T11:48:22.045Z,4.00
2022-08-22T11:53:07.607Z,4.40
2022-08-22T11:57:50.506Z,3.80
2022-08-22T12:02:08.824Z,5.23
2022-08-22T12:06:56.968Z,6.47
2022-08-22T12:11:11.706Z,3.30
2022-08-22T12:15:33.484Z,4.10
2022-08-22T12:20:17.316Z,4.43
2022-08-22T12:35:14.078Z,4.93
2022-08-22T13:04:37.131Z,5.10
2022-08-22T13:18:36.594Z,3.40
2022-08-22T13:37:42.365Z,5.17
2022-08-22T13:47:13.294Z,5.93
2022-08-22T13:51:22.851Z,5.30
2022-08-22T13:55:45.107Z,5.23
2022-08-22T15:31:46.977Z,3.63
2022-08-22T16:00:12.299Z,5.13
2022-08-22T16:04:55.165Z,5.90
2022-08-22T17:01:25.068Z,8.13
2022-08-22T17:20:28.265Z,8.80
2022-08-22T17:58:44.031Z,7.40
2022-08-22T18:03:03.577Z,8.53
2022-08-22T18:07:37.675Z,7.43
2022-08-22T18:11:54.575Z,7.27
2022-08-22T18:16:09.517Z,8.13
2022-08-22T18:20:43.298Z,8.30
2022-08-22T18:25:01.936Z,7.30
2022-08-22T18:29:18.036Z,8.43
2022-08-22T18:38:00.905Z,6.87
2022-08-22T18:42:20.319Z,8.53
2022-08-22T20:12:50.857Z,5.43
2022-08-22T22:32:08.141Z,7.23
2022-08-22T22:36:21.840Z,7.47
2022-08-22T22:40:32.299Z,7.23
2022-08-22T22:44:41.555Z,6.87
2022-08-22T22:48:59.377Z,6.53
2022-08-22T22:53:09.460Z,6.50
2022-08-22T22:57:25.438Z,7.63
2022-08-22T23:01:36.216Z,6.80
2022-08-22T23:05:46.977Z,7.00
2022-08-22T23:09:57.558Z,6.37
2022-08-22T23:14:10.599Z,6.27
2022-08-22T23:18:20.977Z,8.40
2022-08-22T23:22:43.158Z,6.37
2022-08-22T23:26:52.556Z,5.77
2022-08-22T23:31:12.330Z,5.47
2022-08-22T23:35:21.837Z,6.23
2022-08-22T23:39:32.977Z,5.83
2022-08-22T23:43:44.957Z,6.57
2022-08-22T23:47:54.671Z,6.83
2022-08-22T23:52:04.276Z,6.43
2022-08-22T23:56:19.161Z,7.90
